createdAt,value
2022-10-15T00:00:51.617Z,26.35
2022-10-15T00:03:23.864Z,26.21
2022-10-15T00:05:55.999Z,26.21
2022-10-15T00:08:27.652Z,26.03
2022-10-15T00:11:05.640Z,26.00
2022-10-15T00:13:39.716Z,26.23
2022-10-15T00:16:12.999Z,26.11
2022-10-15T00:18:45.716Z,26.03
2022-10-15T00:21:20.084Z,26.01
2022-10-15T00:23:52.995Z,26.11
2022-10-15T00:26:26.311Z,26.14
2022-10-15T00:29:02.547Z,26.07
2022-10-15T00:31:35.953Z,25.84
2022-10-15T00:34:10.843Z,25.95
2022-10-15T00:36:42.558Z,26.09
2022-10-15T00:39:14.627Z,26.16
2022-10-15T00:41:48.102Z,25.92
2022-10-15T00:44:54.820Z,25.83
2022-10-15T00:47:39.051Z,25.75
2022-10-15T00:50:14.094Z,25.73
2022-10-15T00:52:52.922Z,25.77
2022-10-15T00:55:31.974Z,25.71
2022-10-15T00:58:09.852Z,25.84
2022-10-15T01:00:43.644Z,25.98
2022-10-15T01:03:16.099Z,25.84
2022-10-15T01:05:52.595Z,25.80
2022-10-15T01:08:24.680Z,25.82
2022-10-15T01:11:11.508Z,25.97
2022-10-15T01:13:54.214Z,25.90
2022-10-15T01:16:36.420Z,25.79
2022-10-15T01:19:18.487Z,25.66
2022-10-15T01:21:58.983Z,25.71
2022-10-15T01:25:06.967Z,25.60
2022-10-15T01:27:44.864Z,25.78
2022-10-15T01:30:28.033Z,25.82
2022-10-15T01:33:30.578Z,25.83
2022-10-15T01:36:12.473Z,26.01
2022-10-15T01:38:58.691Z,26.01
2022-10-15T01:41:42.034Z,26.01
2022-10-15T01:44:20.504Z,26.10
2022-10-15T01:47:17.728Z,26.01
2022-10-15T01:49:53.196Z,26.19
2022-10-15T01:52:32.892Z,26.09
2022-10-15T01:55:07.668Z,26.27
2022-10-15T01:57:45.679Z,26.34
2022-10-15T02:00:19.349Z,26.34
2022-10-15T02:02:54.113Z,27.16
2022-10-15T02:05:30.689Z,27.35
2022-10-15T02:08:13.908Z,27.39
2022-10-15T02:10:52.974Z,27.40
2022-10-15T02:13:34.570Z,27.33
2022-10-15T02:16:12.864Z,27.17
2022-10-15T02:18:52.591Z,27.10
2022-10-15T02:21:32.307Z,27.05
2022-10-15T02:24:10.653Z,27.04
2022-10-15T02:26:44.757Z,27.09
2022-10-15T02:29:23.821Z,27.09
2022-10-15T02:32:00.670Z,27.10
2022-10-15T02:34:36.651Z,27.11
2022-10-15T02:37:10.419Z,27.11
2022-10-15T02:39:47.356Z,27.07
2022-10-15T02:42:21.991Z,27.26
2022-10-15T02:44:54.473Z,27.27
2022-10-15T02:47:26.577Z,27.28
2022-10-15T02:50:00.578Z,27.31
2022-10-15T02:52:32.575Z,27.30
2022-10-15T02:55:04.824Z,27.33
2022-10-15T02:57:36.922Z,27.13
2022-10-15T03:00:10.900Z,27.37
2022-10-15T03:02:44.540Z,27.29
2022-10-15T03:05:19.500Z,27.43
2022-10-15T03:07:51.305Z,27.43
2022-10-15T03:10:24.713Z,27.42
2022-10-15T03:12:56.426Z,27.49
2022-10-15T03:15:29.918Z,27.52
2022-10-15T03:18:02.040Z,27.64
2022-10-15T03:20:35.930Z,27.55
2022-10-15T03:23:07.761Z,27.45
2022-10-15T03:25:40.555Z,27.48
2022-10-15T03:28:15.997Z,27.51
2022-10-15T03:30:49.026Z,27.57
2022-10-15T03:33:24.461Z,27.74
2022-10-15T03:36:00.419Z,27.71
2022-10-15T03:38:32.696Z,27.78
2022-10-15T03:41:09.051Z,27.89
2022-10-15T03:43:45.161Z,27.89
2022-10-15T03:46:18.393Z,27.87
2022-10-15T03:48:53.421Z,27.98
2022-10-15T03:51:30.670Z,27.85
2022-10-15T03:54:16.208Z,27.88
2022-10-15T03:56:55.789Z,27.87
2022-10-15T03:59:34.178Z,27.83
2022-10-15T04:02:08.153Z,27.79
2022-10-15T04:04:40.385Z,27.94
2022-10-15T04:07:14.777Z,27.72
2022-10-15T04:09:47.326Z,27.92
2022-10-15T04:12:32.329Z,28.11
2022-10-15T04:15:04.467Z,28.20
2022-10-15T04:17:37.053Z,28.11
2022-10-15T04:20:09.841Z,28.33
2022-10-15T04:22:44.299Z,28.19
2022-10-15T04:25:16.241Z,28.15
2022-10-15T04:27:48.455Z,28.20
2022-10-15T04:30:22.969Z,28.28
2022-10-15T04:33:02.744Z,28.23
2022-10-15T04:35:36.602Z,28.14
2022-10-15T04:38:20.306Z,28.47
2022-10-15T04:41:09.024Z,28.44
2022-10-15T04:44:02.016Z,28.68
2022-10-15T04:46:36.138Z,28.48
2022-10-15T04:49:20.109Z,28.59
2022-10-15T04:51:52.238Z,28.51
2022-10-15T04:54:34.870Z,28.62
2022-10-15T04:57:09.425Z,28.63
2022-10-15T04:59:41.639Z,28.60
2022-10-15T05:02:28.387Z,28.63
2022-10-15T05:05:16.919Z,28.62
2022-10-15T05:07:55.786Z,28.72
2022-10-15T05:10:29.257Z,28.80
2022-10-15T05:13:05.592Z,28.81
2022-10-15T05:15:39.875Z,29.01
2022-10-15T05:18:14.075Z,28.98
2022-10-15T05:20:53.012Z,29.03
2022-10-15T05:23:25.379Z,29.01
2022-10-15T05:26:14.640Z,29.02
2022-10-15T05:28:47.059Z,29.17
2022-10-15T05:31:30.441Z,29.13
2022-10-15T05:34:22.835Z,29.36
2022-10-15T05:37:01.135Z,29.17
2022-10-15T05:39:34.393Z,29.20
2022-10-15T05:42:08.308Z,29.21
2022-10-15T05:44:47.204Z,29.13
2022-10-15T05:47:19.515Z,29.27
2022-10-15T05:49:51.888Z,29.52
2022-10-15T05:52:34.171Z,29.53
2022-10-15T05:55:15.274Z,29.59
2022-10-15T05:57:48.444Z,29.67
2022-10-15T06:00:47.061Z,29.77
2022-10-15T06:03:19.142Z,29.71
2022-10-15T06:05:51.076Z,29.80
2022-10-15T06:08:24.038Z,29.61
2022-10-15T06:10:57.377Z,29.61
2022-10-15T06:13:30.771Z,30.00
2022-10-15T06:16:02.891Z,29.59
2022-10-15T06:18:34.884Z,29.70
2022-10-15T06:21:09.119Z,29.64
2022-10-15T06:23:41.190Z,29.72
2022-10-15T06:26:14.362Z,29.93
2022-10-15T06:28:47.783Z,30.04
2022-10-15T06:31:20.499Z,29.88
2022-10-15T06:33:52.246Z,29.92
2022-10-15T06:36:25.742Z,29.93
2022-10-15T06:38:57.394Z,30.00
2022-10-15T06:41:29.596Z,30.10
2022-10-15T06:44:30.452Z,30.20
2022-10-15T06:47:02.378Z,30.21
2022-10-15T06:49:37.589Z,30.38
2022-10-15T06:52:09.728Z,30.32
2022-10-15T06:54:41.803Z,29.98
2022-10-15T06:57:15.178Z,30.06
2022-10-15T06:59:48.960Z,30.23
2022-10-15T07:02:21.510Z,30.32
2022-10-15T07:04:53.346Z,30.52
2022-10-15T07:07:27.783Z,30.57
2022-10-15T07:09:59.888Z,30.23
2022-10-15T07:12:31.724Z,30.08
2022-10-15T07:15:05.754Z,30.23
2022-10-15T07:17:40.075Z,30.17
2022-10-15T07:20:13.119Z,30.15
2022-10-15T07:22:46.052Z,30.04
2022-10-15T07:25:18.704Z,30.36
2022-10-15T07:27:51.424Z,30.64
2022-10-15T07:30:25.200Z,30.45
2022-10-15T07:32:58.736Z,30.56
2022-10-15T07:35:31.842Z,30.24
2022-10-15T07:38:05.060Z,30.45
2022-10-15T07:40:36.912Z,30.14
2022-10-15T07:43:08.996Z,30.28
2022-10-15T07:45:43.025Z,30.53
2022-10-15T07:48:14.823Z,30.24
2022-10-15T07:50:47.005Z,30.25
2022-10-15T07:53:21.960Z,30.43
2022-10-15T07:56:20.841Z,30.71
2022-10-15T07:58:54.519Z,30.62
2022-10-15T08:01:29.081Z,30.63
2022-10-15T08:04:01.527Z,30.65
2022-10-15T08:06:35.982Z,30.56
2022-10-15T08:09:09.411Z,30.50
2022-10-15T08:11:41.807Z,30.60
2022-10-15T08:14:14.503Z,30.69
2022-10-15T08:16:48.060Z,30.80
2022-10-15T08:19:20.731Z,30.56
2022-10-15T08:21:53.995Z,30.59
2022-10-15T08:24:26.327Z,30.52
2022-10-15T08:26:58.589Z,30.68
2022-10-15T08:29:31.510Z,30.89
2022-10-15T08:32:04.990Z,30.81
2022-10-15T08:34:37.200Z,30.69
2022-10-15T08:37:09.248Z,30.36
2022-10-15T08:39:41.532Z,30.68
2022-10-15T08:42:21.805Z,30.85
2022-10-15T08:44:59.987Z,30.68
2022-10-15T08:47:41.305Z,30.99
2022-10-15T08:50:23.911Z,30.62
2022-10-15T08:52:59.539Z,30.79
2022-10-15T08:55:37.260Z,30.82
2022-10-15T08:58:18.025Z,30.89
2022-10-15T09:00:54.817Z,30.90
2022-10-15T09:03:41.061Z,30.86
2022-10-15T09:06:20.652Z,30.67
2022-10-15T09:09:08.618Z,30.89
2022-10-15T09:11:52.945Z,30.83
2022-10-15T09:14:30.954Z,30.93
2022-10-15T09:17:08.689Z,30.93
2022-10-15T09:19:42.264Z,30.92
2022-10-15T09:22:18.394Z,30.79
2022-10-15T09:24:50.823Z,30.71
2022-10-15T09:27:31.727Z,30.90
2022-10-15T09:30:36.865Z,30.81
2022-10-15T09:33:20.026Z,30.90
2022-10-15T09:35:59.422Z,30.99
2022-10-15T09:38:46.192Z,30.77
2022-10-15T09:41:29.049Z,30.90
2022-10-15T09:44:05.663Z,31.11
2022-10-15T09:46:55.408Z,30.96
2022-10-15T09:49:35.382Z,31.01
2022-10-15T09:52:16.833Z,31.02
2022-10-15T09:54:59.408Z,30.95
2022-10-15T09:57:34.981Z,30.89
2022-10-15T10:00:11.209Z,30.98
2022-10-15T10:02:48.175Z,31.19
2022-10-15T10:05:31.139Z,31.08
2022-10-15T10:08:20.334Z,30.97
2022-10-15T10:11:00.027Z,31.16
2022-10-15T10:13:35.066Z,30.96
2022-10-15T10:16:10.098Z,30.96
2022-10-15T10:18:44.465Z,31.06
2022-10-15T10:21:28.132Z,31.07
2022-10-15T10:24:35.790Z,30.98
2022-10-15T10:27:24.326Z,31.12
2022-10-15T10:30:00.710Z,31.16
2022-10-15T10:32:35.724Z,30.98
2022-10-15T10:35:09.668Z,31.01
2022-10-15T10:37:46.449Z,30.75
2022-10-15T10:40:31.269Z,30.98
2022-10-15T10:43:20.218Z,31.15
2022-10-15T10:46:03.709Z,31.21
2022-10-15T10:48:48.900Z,31.08
2022-10-15T10:51:24.285Z,31.22
2022-10-15T10:54:00.486Z,31.18
2022-10-15T10:56:38.103Z,31.23
2022-10-15T10:59:19.481Z,31.13
2022-10-15T11:01:54.803Z,31.18
2022-10-15T11:04:29.778Z,31.24
2022-10-15T11:07:07.148Z,31.20
2022-10-15T11:09:53.710Z,31.26
2022-10-15T11:12:47.868Z,31.28
2022-10-15T11:15:32.673Z,31.27
2022-10-15T11:18:24.609Z,31.30
2022-10-15T11:21:06.961Z,31.33
2022-10-15T11:24:09.142Z,31.33
2022-10-15T11:27:10.848Z,31.29
2022-10-15T11:29:58.295Z,31.25
2022-10-15T11:33:05.769Z,31.24
2022-10-15T11:35:53.657Z,31.19
2022-10-15T11:38:38.920Z,31.26
2022-10-15T11:41:29.522Z,31.32
2022-10-15T11:44:25.585Z,31.16
2022-10-15T11:47:14.473Z,31.09
2022-10-15T11:49:57.036Z,31.14
2022-10-15T11:52:44.011Z,31.04
2022-10-15T11:55:23.476Z,31.02
2022-10-15T11:58:01.208Z,30.98
2022-10-15T12:00:38.436Z,30.96
2022-10-15T12:03:21.839Z,30.87
2022-10-15T12:05:59.314Z,30.79
2022-10-15T12:08:37.978Z,30.50
2022-10-15T12:11:30.583Z,30.53
2022-10-15T12:14:08.836Z,30.44
2022-10-15T12:16:49.635Z,30.25
2022-10-15T12:19:30.348Z,30.09
2022-10-15T12:22:12.734Z,30.22
2022-10-15T12:24:56.011Z,30.17
2022-10-15T12:27:36.053Z,30.43
2022-10-15T12:30:28.853Z,30.51
2022-10-15T12:33:02.250Z,30.53
2022-10-15T12:35:41.878Z,30.48
2022-10-15T12:38:28.925Z,30.39
2022-10-15T12:41:03.811Z,30.29
2022-10-15T12:43:39.286Z,30.28
2022-10-15T12:46:14.110Z,30.25
2022-10-15T12:48:47.620Z,30.23
2022-10-15T12:51:44.375Z,30.23
2022-10-15T12:54:42.221Z,30.25
2022-10-15T12:57:50.100Z,30.24
2022-10-15T13:00:41.259Z,30.10
2022-10-15T13:03:42.536Z,29.92
2022-10-15T13:06:41.880Z,29.83
2022-10-15T13:09:35.714Z,29.79
2022-10-15T13:12:08.735Z,29.84
2022-10-15T13:14:44.395Z,29.81
2022-10-15T13:17:21.426Z,29.78
2022-10-15T13:20:04.226Z,29.79
2022-10-15T13:22:38.606Z,29.74
2022-10-15T13:25:21.934Z,29.70
2022-10-15T13:27:54.154Z,29.46
2022-10-15T13:30:26.678Z,29.47
2022-10-15T13:33:00.355Z,29.65
2022-10-15T13:35:36.146Z,29.63
2022-10-15T13:38:09.033Z,29.60
2022-10-15T13:40:42.896Z,29.48
2022-10-15T13:43:21.795Z,29.43
2022-10-15T13:45:57.308Z,29.46
2022-10-15T13:48:32.140Z,29.46
2022-10-15T13:51:06.567Z,29.39
2022-10-15T13:53:40.170Z,29.46
2022-10-15T13:56:27.992Z,29.41
2022-10-15T13:59:01.546Z,29.23
2022-10-15T14:01:36.307Z,29.13
2022-10-15T14:04:19.674Z,29.18
2022-10-15T14:07:04.734Z,29.17
2022-10-15T14:09:39.489Z,29.06
2022-10-15T14:12:15.687Z,29.10
2022-10-15T14:14:49.555Z,29.01
2022-10-15T14:17:28.453Z,29.31
2022-10-15T14:22:58.149Z,29.06
2022-10-15T14:25:30.826Z,29.13
2022-10-15T14:28:04.425Z,29.01
2022-10-15T14:30:38.850Z,29.07
2022-10-15T14:33:36.374Z,29.11
2022-10-15T14:36:11.100Z,29.05
2022-10-15T14:38:44.646Z,29.19
2022-10-15T14:41:32.103Z,29.21
2022-10-15T14:44:09.720Z,29.27
2022-10-15T14:46:45.169Z,29.26
2022-10-15T14:49:29.159Z,29.19
2022-10-15T14:52:06.916Z,29.17
2022-10-15T14:54:46.015Z,29.22
2022-10-15T14:57:27.092Z,29.43
2022-10-15T15:00:02.546Z,29.50
2022-10-15T15:02:34.892Z,29.64
2022-10-15T15:05:21.065Z,29.53
2022-10-15T15:07:52.958Z,29.62
2022-10-15T15:10:26.706Z,29.63
2022-10-15T15:13:00.937Z,29.62
2022-10-15T15:15:35.441Z,29.68
2022-10-15T15:18:08.549Z,29.56
2022-10-15T15:20:41.366Z,29.54
2022-10-15T15:23:16.653Z,29.18
2022-10-15T15:25:48.523Z,28.96
2022-10-15T15:28:23.298Z,28.92
2022-10-15T15:31:01.117Z,28.79
2022-10-15T15:33:33.459Z,28.66
2022-10-15T15:36:07.970Z,28.71
2022-10-15T15:38:40.403Z,28.80
2022-10-15T15:41:17.907Z,28.66
2022-10-15T15:43:50.510Z,28.69
2022-10-15T15:46:25.542Z,28.69
2022-10-15T15:49:00.561Z,28.68
2022-10-15T15:51:33.638Z,28.68
2022-10-15T15:54:08.349Z,28.60
2022-10-15T15:56:41.609Z,28.50
2022-10-15T15:59:14.496Z,28.45
2022-10-15T16:01:48.243Z,28.41
2022-10-15T16:04:21.240Z,28.43
2022-10-15T16:06:53.628Z,28.34
2022-10-15T16:09:26.678Z,28.51
2022-10-15T16:11:59.024Z,28.41
2022-10-15T16:14:31.278Z,28.51
2022-10-15T16:17:04.760Z,28.50
2022-10-15T16:19:37.289Z,28.62
2022-10-15T16:22:09.957Z,28.54
2022-10-15T16:24:42.142Z,28.50
2022-10-15T16:27:14.269Z,28.46
2022-10-15T16:29:46.589Z,28.45
2022-10-15T16:32:20.830Z,28.48
2022-10-15T16:34:53.179Z,28.39
2022-10-15T16:37:25.644Z,28.30
2022-10-15T16:39:57.674Z,28.45
2022-10-15T16:42:30.275Z,28.52
2022-10-15T16:45:02.701Z,28.47
2022-10-15T16:47:36.381Z,28.14
2022-10-15T16:50:09.109Z,28.47
2022-10-15T16:52:40.799Z,28.38
2022-10-15T16:55:13.498Z,28.20
2022-10-15T16:57:45.888Z,28.29
2022-10-15T17:00:18.477Z,28.16
2022-10-15T17:02:54.191Z,28.10
2022-10-15T17:05:27.520Z,28.20
2022-10-15T17:07:59.629Z,28.02
2022-10-15T17:10:32.290Z,28.33
2022-10-15T17:13:06.063Z,28.52
2022-10-15T17:15:38.432Z,28.65
2022-10-15T17:18:12.139Z,28.54
2022-10-15T17:20:48.531Z,27.81
2022-10-15T17:23:20.788Z,27.80
2022-10-15T17:25:52.983Z,27.76
2022-10-15T17:28:25.120Z,27.82
2022-10-15T17:30:57.543Z,27.91
2022-10-15T17:33:34.440Z,27.91
2022-10-15T17:36:08.512Z,27.80
2022-10-15T17:38:40.307Z,27.71
2022-10-15T17:41:14.235Z,27.84
2022-10-15T17:43:46.805Z,27.97
2022-10-15T17:46:21.852Z,28.24
2022-10-15T17:48:56.680Z,28.15
2022-10-15T17:51:31.231Z,28.01
2022-10-15T17:54:04.411Z,27.84
2022-10-15T17:56:38.158Z,27.74
2022-10-15T17:59:12.306Z,27.78
2022-10-15T18:01:57.689Z,27.58
2022-10-15T18:04:32.943Z,27.51
2022-10-15T18:07:04.865Z,27.59
2022-10-15T18:09:37.697Z,27.96
2022-10-15T18:12:10.122Z,27.96
2022-10-15T18:14:41.986Z,27.81
2022-10-15T18:17:14.074Z,27.75
2022-10-15T18:19:48.488Z,27.88
2022-10-15T18:22:20.134Z,27.94
2022-10-15T18:24:52.728Z,27.86
2022-10-15T18:27:25.092Z,27.39
2022-10-15T18:29:57.337Z,27.63
2022-10-15T18:32:30.128Z,27.46
2022-10-15T18:35:03.416Z,27.54
2022-10-15T18:37:35.365Z,27.65
2022-10-15T18:40:09.338Z,27.51
2022-10-15T18:42:41.076Z,27.71
2022-10-15T18:45:20.606Z,28.03
2022-10-15T18:47:52.730Z,27.94
2022-10-15T18:50:26.814Z,27.55
2022-10-15T18:52:58.956Z,27.45
2022-10-15T18:55:31.269Z,27.57
2022-10-15T18:58:03.757Z,27.49
2022-10-15T19:00:41.691Z,27.49
2022-10-15T19:03:14.024Z,27.41
2022-10-15T19:05:49.747Z,27.57
2022-10-15T19:08:21.812Z,27.89
2022-10-15T19:10:53.611Z,27.62
2022-10-15T19:13:25.461Z,27.32
2022-10-15T19:15:58.083Z,27.39
2022-10-15T19:18:30.424Z,27.42
2022-10-15T19:21:03.923Z,27.45
2022-10-15T19:23:36.462Z,27.34
2022-10-15T19:26:10.937Z,27.48
2022-10-15T19:28:43.531Z,27.40
2022-10-15T19:31:21.733Z,27.27
2022-10-15T19:33:54.015Z,27.28
2022-10-15T19:36:33.333Z,27.40
2022-10-15T19:39:07.597Z,27.40
2022-10-15T19:41:40.655Z,27.24
2022-10-15T19:44:14.756Z,27.19
2022-10-15T19:46:47.605Z,27.14
2022-10-15T19:49:19.935Z,27.32
2022-10-15T19:51:53.773Z,27.15
2022-10-15T19:54:26.629Z,27.12
2022-10-15T19:56:58.759Z,27.06
2022-10-15T19:59:30.545Z,27.16
2022-10-15T20:02:02.523Z,27.05
2022-10-15T20:04:34.531Z,26.97
2022-10-15T20:07:07.748Z,26.77
2022-10-15T20:09:39.956Z,26.82
2022-10-15T20:12:12.041Z,26.91
2022-10-15T20:14:43.631Z,26.87
2022-10-15T20:17:15.548Z,26.83
2022-10-15T20:19:47.748Z,26.95
2022-10-15T20:22:21.206Z,27.06
2022-10-15T20:24:53.570Z,27.05
2022-10-15T20:27:26.062Z,26.87
2022-10-15T20:29:58.349Z,26.78
2022-10-15T20:32:34.804Z,26.85
2022-10-15T20:35:08.331Z,27.00
2022-10-15T20:37:41.929Z,27.09
2022-10-15T20:40:14.534Z,26.92
2022-10-15T20:42:46.692Z,26.94
2022-10-15T20:45:19.271Z,26.90
2022-10-15T20:47:54.528Z,26.86
2022-10-15T20:50:31.611Z,26.81
2022-10-15T20:53:06.531Z,26.79
2022-10-15T20:55:38.743Z,26.63
2022-10-15T20:58:11.383Z,26.45
2022-10-15T21:00:43.580Z,26.36
2022-10-15T21:03:15.496Z,26.53
2022-10-15T21:05:47.786Z,26.74
2022-10-15T21:08:21.093Z,27.05
2022-10-15T21:10:53.037Z,27.13
2022-10-15T21:13:25.741Z,27.06
2022-10-15T21:16:02.279Z,26.95
2022-10-15T21:18:34.435Z,26.82
2022-10-15T21:21:07.689Z,26.62
2022-10-15T21:23:42.557Z,26.59
2022-10-15T21:26:16.400Z,26.55
2022-10-15T21:28:49.165Z,26.79
2022-10-15T21:31:21.634Z,26.69
2022-10-15T21:33:54.011Z,26.70
2022-10-15T21:36:28.074Z,26.62
2022-10-15T21:39:05.538Z,26.48
2022-10-15T21:41:39.118Z,26.61
2022-10-15T21:44:12.296Z,26.52
2022-10-15T21:46:45.219Z,26.50
2022-10-15T21:49:18.034Z,26.41
2022-10-15T21:51:50.060Z,26.50
2022-10-15T21:54:23.855Z,26.42
2022-10-15T21:56:56.115Z,26.47
2022-10-15T21:59:28.407Z,26.40
2022-10-15T22:02:00.913Z,26.40
2022-10-15T22:04:35.849Z,26.41
2022-10-15T22:07:10.677Z,26.27
2022-10-15T22:09:44.315Z,26.37
2022-10-15T22:12:18.969Z,26.42
2022-10-15T22:14:54.145Z,26.46
2022-10-15T22:17:26.254Z,26.37
2022-10-15T22:19:57.929Z,26.22
2022-10-15T22:22:30.631Z,26.17
2022-10-15T22:25:04.024Z,26.21
2022-10-15T22:27:36.132Z,26.29
2022-10-15T22:30:09.014Z,26.25
2022-10-15T22:32:45.829Z,26.27
2022-10-15T22:35:21.086Z,26.53
2022-10-15T22:37:57.328Z,26.65
2022-10-15T22:40:37.408Z,26.48
2022-10-15T22:43:14.786Z,26.37
2022-10-15T22:45:55.507Z,26.38
2022-10-15T22:48:32.472Z,26.45
2022-10-15T22:51:09.356Z,26.35
2022-10-15T22:53:46.707Z,26.32
2022-10-15T22:56:25.011Z,26.34
2022-10-15T22:59:04.303Z,26.24
2022-10-15T23:01:41.915Z,26.14
2022-10-15T23:04:19.840Z,26.12
2022-10-15T23:06:56.292Z,26.19
2022-10-15T23:09:31.692Z,26.15
2022-10-15T23:12:07.359Z,26.17
2022-10-15T23:14:43.108Z,26.12
2022-10-15T23:17:17.842Z,26.10
2022-10-15T23:19:53.775Z,26.07
2022-10-15T23:22:28.556Z,26.08
2022-10-15T23:25:07.204Z,26.26
2022-10-15T23:27:44.375Z,26.17
2022-10-15T23:30:25.133Z,26.32
2022-10-15T23:32:59.539Z,26.33
2022-10-15T23:38:17.653Z,26.13
2022-10-15T23:40:51.280Z,25.77
2022-10-15T23:43:34.843Z,25.59
2022-10-15T23:46:13.503Z,25.85
2022-10-15T23:48:51.511Z,25.94
2022-10-15T23:51:27.118Z,25.82
2022-10-15T23:54:03.219Z,25.72
2022-10-15T23:56:42.203Z,25.73
2022-10-15T23:59:23.655Z,26.03
